createdAt,value
2017-08-08T00:00:45.969Z,69.51
2017-08-08T00:01:52.060Z,70.29
2017-08-08T00:02:58.097Z,69.73
2017-08-08T00:04:04.133Z,69.30
2017-08-08T00:05:10.161Z,69.71
2017-08-08T00:06:16.201Z,69.76
2017-08-08T00:07:22.257Z,69.71
2017-08-08T00:08:28.309Z,69.48
2017-08-08T00:09:34.353Z,69.80
2017-08-08T00:10:40.477Z,70.43
2017-08-08T00:11:46.557Z,71.10
2017-08-08T00:12:52.665Z,71.00
2017-08-08T00:13:58.697Z,70.89
2017-08-08T00:15:04.754Z,71.05
2017-08-08T00:16:10.860Z,70.98
2017-08-08T00:17:16.923Z,70.65
2017-08-08T00:18:26.006Z,70.53
2017-08-08T00:19:32.033Z,70.45
2017-08-08T00:20:38.066Z,70.58
2017-08-08T00:21:44.088Z,70.43
2017-08-08T00:22:50.120Z,70.78
2017-08-08T00:23:56.184Z,71.12
2017-08-08T00:25:02.204Z,71.05
2017-08-08T00:26:08.276Z,71.27
2017-08-08T00:27:14.312Z,70.60
2017-08-08T00:28:20.378Z,70.70
2017-08-08T00:29:26.428Z,71.62
2017-08-08T00:30:34.404Z,72.19
2017-08-08T00:31:40.438Z,72.25
2017-08-08T00:32:47.572Z,72.06
2017-08-08T00:33:53.667Z,72.01
2017-08-08T00:34:59.717Z,72.12
2017-08-08T00:36:05.781Z,72.65
2017-08-08T00:37:11.811Z,72.57
2017-08-08T00:38:17.865Z,73.25
2017-08-08T00:39:23.882Z,73.60
2017-08-08T00:40:29.973Z,73.46
2017-08-08T00:41:36.024Z,73.21
2017-08-08T00:42:42.074Z,72.90
2017-08-08T00:43:48.118Z,73.06
2017-08-08T00:44:54.151Z,73.18
2017-08-08T00:46:00.247Z,73.68
2017-08-08T00:47:06.306Z,73.38
2017-08-08T00:48:12.346Z,72.61
2017-08-08T00:49:18.402Z,73.15
2017-08-08T00:50:24.431Z,73.02
2017-08-08T00:51:30.500Z,73.57
2017-08-08T00:52:36.544Z,73.62
2017-08-08T00:53:42.557Z,73.27
2017-08-08T00:54:48.627Z,73.29
2017-08-08T00:55:54.656Z,72.83
2017-08-08T00:57:00.746Z,72.66
2017-08-08T00:58:06.800Z,72.97
2017-08-08T00:59:12.844Z,72.72
2017-08-08T01:00:18.893Z,72.64
2017-08-08T01:01:24.741Z,72.65
2017-08-08T01:02:30.821Z,73.28
2017-08-08T01:03:36.870Z,73.59
2017-08-08T01:04:42.705Z,74.12
2017-08-08T01:05:48.736Z,74.69
2017-08-08T01:06:54.768Z,74.43
2017-08-08T01:08:00.873Z,73.78
2017-08-08T01:09:06.884Z,74.42
2017-08-08T01:10:13.825Z,74.18
2017-08-08T01:11:19.881Z,74.87
2017-08-08T01:12:25.934Z,74.93
2017-08-08T01:13:32.043Z,74.80
2017-08-08T01:14:38.071Z,75.28
2017-08-08T01:15:44.089Z,74.99
2017-08-08T01:16:50.139Z,75.22
2017-08-08T01:17:56.175Z,74.70
2017-08-08T01:19:02.281Z,74.83
2017-08-08T01:20:08.331Z,74.69
2017-08-08T01:21:14.389Z,74.52
2017-08-08T01:22:20.458Z,74.54
2017-08-08T01:23:26.488Z,74.50
2017-08-08T01:24:32.561Z,74.88
2017-08-08T01:25:38.612Z,74.76
2017-08-08T01:26:44.663Z,74.45
2017-08-08T01:27:50.700Z,74.29
2017-08-08T01:28:56.749Z,74.54
2017-08-08T01:30:02.839Z,75.07
2017-08-08T01:31:08.893Z,75.26
2017-08-08T01:32:14.948Z,75.30
2017-08-08T01:33:20.971Z,75.57
2017-08-08T01:34:27.026Z,75.33
2017-08-08T01:35:33.101Z,75.30
2017-08-08T01:36:39.129Z,75.30
2017-08-08T01:37:45.158Z,75.13
2017-08-08T01:38:50.669Z,75.39
2017-08-08T01:39:56.347Z,75.15
2017-08-08T01:41:02.436Z,75.25
2017-08-08T01:42:08.492Z,75.21
2017-08-08T01:43:14.543Z,75.67
2017-08-08T01:44:20.571Z,75.08
2017-08-08T01:45:26.268Z,75.20
2017-08-08T01:46:32.350Z,75.54
2017-08-08T01:47:38.037Z,75.96
2017-08-08T01:48:44.060Z,75.52
2017-08-08T01:49:49.880Z,75.49
2017-08-08T01:50:55.893Z,75.74
2017-08-08T01:52:01.997Z,75.35
2017-08-08T01:53:08.031Z,75.92
2017-08-08T01:54:13.688Z,76.70
2017-08-08T01:55:19.390Z,76.65
2017-08-08T01:56:25.425Z,76.07
2017-08-08T01:57:31.177Z,75.81
2017-08-08T01:58:36.857Z,76.54
2017-08-08T01:59:42.888Z,76.34
2017-08-08T02:00:48.194Z,76.53
2017-08-08T02:01:53.502Z,76.33
2017-08-08T02:02:59.006Z,75.93
2017-08-08T02:04:04.105Z,75.92
2017-08-08T02:05:09.782Z,76.23
2017-08-08T02:06:15.145Z,76.57
2017-08-08T02:07:21.191Z,76.18
2017-08-08T02:08:27.271Z,76.60
2017-08-08T02:09:34.157Z,76.37
2017-08-08T02:10:39.476Z,76.38
2017-08-08T02:11:44.776Z,76.25
2017-08-08T02:12:50.481Z,76.27
2017-08-08T02:13:56.167Z,75.75
2017-08-08T02:15:02.202Z,75.29
2017-08-08T02:16:08.241Z,75.94
2017-08-08T02:17:13.754Z,75.57
2017-08-08T02:18:19.569Z,76.11
2017-08-08T02:19:25.634Z,75.86
2017-08-08T02:20:31.665Z,76.00
2017-08-08T02:21:37.716Z,75.79
2017-08-08T02:22:43.401Z,75.74
2017-08-08T02:23:49.475Z,75.84
2017-08-08T02:24:59.058Z,75.65
2017-08-08T02:26:05.432Z,76.24
2017-08-08T02:27:11.474Z,76.48
2017-08-08T02:28:17.531Z,76.62
2017-08-08T02:29:23.540Z,76.35
2017-08-08T02:30:29.597Z,76.32
2017-08-08T02:31:35.622Z,76.42
2017-08-08T02:32:41.658Z,76.44
2017-08-08T02:33:47.720Z,76.38
2017-08-08T02:34:53.770Z,76.61
2017-08-08T02:35:59.823Z,76.38
2017-08-08T02:37:05.857Z,76.46
2017-08-08T02:38:11.890Z,76.34
2017-08-08T02:39:17.916Z,76.64
2017-08-08T02:40:23.944Z,75.91
2017-08-08T02:41:30.017Z,76.47
2017-08-08T02:42:36.034Z,76.15
2017-08-08T02:43:42.054Z,76.17
2017-08-08T02:44:48.076Z,76.42
2017-08-08T02:45:54.095Z,76.13
2017-08-08T02:47:00.178Z,77.05
2017-08-08T02:48:06.200Z,77.54
2017-08-08T02:49:12.219Z,77.49
2017-08-08T02:50:18.245Z,77.53
2017-08-08T02:51:24.264Z,77.76
2017-08-08T02:52:30.341Z,77.75
2017-08-08T02:53:36.395Z,77.94
2017-08-08T02:54:42.456Z,77.19
2017-08-08T02:55:48.481Z,77.55
2017-08-08T02:56:54.510Z,77.53
2017-08-08T02:58:00.611Z,77.51
2017-08-08T02:59:06.904Z,77.51
2017-08-08T03:00:12.961Z,77.83
2017-08-08T03:01:18.993Z,77.97
2017-08-08T03:02:25.018Z,78.01
2017-08-08T03:03:30.766Z,77.79
2017-08-08T03:04:36.795Z,77.34
2017-08-08T03:05:42.832Z,77.51
2017-08-08T03:06:48.837Z,77.31
2017-08-08T03:07:54.862Z,77.19
2017-08-08T03:09:00.928Z,77.42
2017-08-08T03:10:06.977Z,77.60
2017-08-08T03:11:13.000Z,77.08
2017-08-08T03:12:19.057Z,77.27
2017-08-08T03:13:25.094Z,77.16
2017-08-08T03:14:31.164Z,76.86
2017-08-08T03:15:37.195Z,77.29
2017-08-08T03:16:43.269Z,77.20
2017-08-08T03:17:49.290Z,77.27
2017-08-08T03:18:55.305Z,77.70
2017-08-08T03:20:01.375Z,77.62
2017-08-08T03:21:07.403Z,77.41
2017-08-08T03:22:13.432Z,78.01
2017-08-08T03:23:19.469Z,77.41
2017-08-08T03:24:25.541Z,77.25
2017-08-08T03:25:31.580Z,77.02
2017-08-08T03:26:37.670Z,77.51
2017-08-08T03:27:43.744Z,77.71
2017-08-08T03:28:50.605Z,77.41
2017-08-08T03:29:56.675Z,77.43
2017-08-08T03:31:02.739Z,77.49
2017-08-08T03:32:08.855Z,77.74
2017-08-08T03:33:14.874Z,77.62
2017-08-08T03:34:20.900Z,77.20
2017-08-08T03:35:26.945Z,77.24
2017-08-08T03:36:33.022Z,78.02
2017-08-08T03:37:39.068Z,78.37
2017-08-08T03:38:45.081Z,78.14
2017-08-08T03:39:52.012Z,77.81
2017-08-08T03:40:58.514Z,77.88
2017-08-08T03:42:04.586Z,78.13
2017-08-08T03:43:10.592Z,77.96
2017-08-08T03:44:16.629Z,78.37
2017-08-08T03:45:22.640Z,78.68
2017-08-08T03:46:28.668Z,78.31
2017-08-08T03:47:34.725Z,78.05
2017-08-08T03:48:40.738Z,78.04
2017-08-08T03:49:46.771Z,77.97
2017-08-08T03:50:52.878Z,78.63
2017-08-08T03:51:58.946Z,78.34
2017-08-08T03:53:05.013Z,78.87
2017-08-08T03:54:11.036Z,78.67
2017-08-08T03:55:19.022Z,79.01
2017-08-08T03:56:28.157Z,78.74
2017-08-08T03:57:36.235Z,78.69
2017-08-08T03:58:43.753Z,78.72
2017-08-08T03:59:50.452Z,78.90
2017-08-08T04:00:57.612Z,78.79
2017-08-08T04:02:04.692Z,78.39
2017-08-08T04:03:10.842Z,78.71
2017-08-08T04:04:16.921Z,78.67
2017-08-08T04:05:22.954Z,78.12
2017-08-08T04:06:28.989Z,78.60
2017-08-08T04:07:35.089Z,78.55
2017-08-08T04:08:41.380Z,78.97
2017-08-08T04:09:47.849Z,79.12
2017-08-08T04:10:55.037Z,79.22
2017-08-08T04:12:01.062Z,79.36
2017-08-08T04:13:07.101Z,79.10
2017-08-08T04:14:13.146Z,79.34
2017-08-08T04:15:19.281Z,79.91
2017-08-08T04:16:25.306Z,80.10
2017-08-08T04:17:31.390Z,79.52
2017-08-08T04:18:37.417Z,79.44
2017-08-08T04:19:43.444Z,79.69
2017-08-08T04:20:49.568Z,79.11
2017-08-08T04:21:57.385Z,79.24
2017-08-08T04:23:04.664Z,78.96
2017-08-08T04:24:10.699Z,78.92
2017-08-08T04:25:16.751Z,78.57
2017-08-08T04:26:22.810Z,77.92
2017-08-08T04:27:28.837Z,78.00
2017-08-08T04:28:34.867Z,78.48
2017-08-08T04:29:40.873Z,78.89
2017-08-08T04:30:46.894Z,79.18
2017-08-08T04:31:53.064Z,78.87
2017-08-08T04:32:59.096Z,79.12
2017-08-08T04:34:05.278Z,79.34
2017-08-08T04:35:11.294Z,78.27
2017-08-08T04:36:17.324Z,78.01
2017-08-08T04:37:23.377Z,77.85
2017-08-08T04:38:29.400Z,78.03
2017-08-08T04:39:35.450Z,78.05
2017-08-08T04:40:41.465Z,77.77
2017-08-08T04:41:47.514Z,77.31
2017-08-08T04:42:53.605Z,77.55
2017-08-08T04:43:59.632Z,76.49
2017-08-08T04:45:05.642Z,76.63
2017-08-08T04:46:11.692Z,76.22
2017-08-08T04:47:17.698Z,76.46
2017-08-08T04:48:23.741Z,75.72
2017-08-08T04:49:29.752Z,74.69
2017-08-08T04:50:35.800Z,75.42
2017-08-08T04:51:41.813Z,75.23
2017-08-08T04:52:47.845Z,75.07
2017-08-08T04:53:53.907Z,74.44
2017-08-08T04:54:59.924Z,73.58
2017-08-08T04:56:05.979Z,73.87
2017-08-08T04:57:12.029Z,72.76
2017-08-08T04:58:18.040Z,73.50
2017-08-08T04:59:24.076Z,73.00
2017-08-08T05:00:30.081Z,72.56
2017-08-08T05:01:36.132Z,72.42
2017-08-08T05:02:43.843Z,71.99
2017-08-08T05:03:52.280Z,71.27
2017-08-08T05:05:00.766Z,71.75
2017-08-08T05:06:06.463Z,71.12
2017-08-08T05:07:14.853Z,70.78
2017-08-08T05:08:22.019Z,70.59
2017-08-08T05:09:29.136Z,70.41
2017-08-08T05:10:35.193Z,70.00
2017-08-08T05:11:41.198Z,69.48
2017-08-08T05:12:47.242Z,70.45
2017-08-08T05:13:53.253Z,69.29
2017-08-08T05:14:59.251Z,70.23
2017-08-08T05:16:06.070Z,69.31
2017-08-08T05:17:12.183Z,69.46
2017-08-08T05:18:18.230Z,69.79
2017-08-08T05:19:24.253Z,70.09
2017-08-08T05:20:30.315Z,69.61
2017-08-08T05:21:36.371Z,69.82
2017-08-08T05:22:42.415Z,70.46
2017-08-08T05:23:48.442Z,70.06
2017-08-08T05:24:54.467Z,70.07
2017-08-08T05:26:00.486Z,70.42
2017-08-08T05:27:06.554Z,70.37
2017-08-08T05:28:12.589Z,70.12
2017-08-08T05:29:18.708Z,68.89
2017-08-08T05:30:24.725Z,68.25
2017-08-08T05:31:30.747Z,68.18
2017-08-08T05:32:36.804Z,68.33
2017-08-08T05:33:42.817Z,68.63
2017-08-08T05:34:48.856Z,67.67
2017-08-08T05:35:54.874Z,68.00
2017-08-08T05:37:00.893Z,67.64
2017-08-08T05:38:07.069Z,68.20
2017-08-08T05:39:13.091Z,67.58
2017-08-08T05:40:19.133Z,67.68
2017-08-08T05:41:25.141Z,68.09
2017-08-08T05:42:31.189Z,68.06
2017-08-08T05:43:37.252Z,67.96
2017-08-08T05:44:43.286Z,67.98
2017-08-08T05:45:55.373Z,68.17
2017-08-08T05:47:01.419Z,67.80
2017-08-08T05:48:07.532Z,67.55
2017-08-08T05:49:13.601Z,67.70
2017-08-08T05:50:19.645Z,67.48
2017-08-08T05:51:25.649Z,67.46
2017-08-08T05:52:31.679Z,67.26
2017-08-08T05:53:37.693Z,67.66
2017-08-08T05:54:43.742Z,67.58
2017-08-08T05:55:49.777Z,67.82
2017-08-08T05:56:55.794Z,67.84
2017-08-08T05:58:02.832Z,68.10
2017-08-08T05:59:10.168Z,68.07
2017-08-08T06:00:17.797Z,67.71
2017-08-08T06:01:24.171Z,67.27
2017-08-08T06:02:30.204Z,67.52
2017-08-08T06:03:36.224Z,66.80
2017-08-08T06:04:42.245Z,66.65
2017-08-08T06:05:48.300Z,66.61
2017-08-08T06:06:54.310Z,66.33
2017-08-08T06:08:00.326Z,66.30
2017-08-08T06:09:05.980Z,66.41
2017-08-08T06:10:12.028Z,65.87
2017-08-08T06:11:18.090Z,65.80
2017-08-08T06:12:24.117Z,65.46
2017-08-08T06:13:30.147Z,65.43
2017-08-08T06:14:36.184Z,65.50
2017-08-08T06:15:42.219Z,65.44
2017-08-08T06:16:48.307Z,65.13
2017-08-08T06:17:54.404Z,65.20
2017-08-08T06:19:00.416Z,64.89
2017-08-08T06:20:06.438Z,64.49
2017-08-08T06:21:12.456Z,64.59
2017-08-08T06:22:18.517Z,64.75
2017-08-08T06:23:24.531Z,65.03
2017-08-08T06:24:30.549Z,64.52
2017-08-08T06:25:36.570Z,64.34
2017-08-08T06:26:42.597Z,65.06
2017-08-08T06:27:48.659Z,64.47
2017-08-08T06:28:54.676Z,64.67
2017-08-08T06:30:00.718Z,64.43
2017-08-08T06:31:06.776Z,64.21
2017-08-08T06:32:12.793Z,64.41
2017-08-08T06:33:18.838Z,64.12
2017-08-08T06:34:24.866Z,63.22
2017-08-08T06:35:30.886Z,63.30
2017-08-08T06:36:36.908Z,63.35
2017-08-08T06:37:42.994Z,62.83
2017-08-08T06:38:49.041Z,62.60
2017-08-08T06:39:55.057Z,63.01
2017-08-08T06:41:01.133Z,62.81
2017-08-08T06:42:07.132Z,62.82
2017-08-08T06:43:13.167Z,62.33
2017-08-08T06:44:19.279Z,62.25
2017-08-08T06:45:25.302Z,62.00
2017-08-08T06:46:31.296Z,62.35
2017-08-08T06:47:37.317Z,61.60
2017-08-08T06:48:43.163Z,61.86
2017-08-08T06:49:49.841Z,61.67
2017-08-08T06:50:57.439Z,61.65
2017-08-08T06:52:04.050Z,61.69
2017-08-08T06:53:10.096Z,62.19
2017-08-08T06:54:16.134Z,61.59
2017-08-08T06:55:22.941Z,60.80
2017-08-08T06:56:28.969Z,60.59
2017-08-08T06:57:35.043Z,60.50
2017-08-08T06:58:41.049Z,60.28
2017-08-08T06:59:47.085Z,59.93
2017-08-08T07:00:53.156Z,59.58
2017-08-08T07:01:59.229Z,59.61
2017-08-08T07:03:05.273Z,59.47
2017-08-08T07:04:11.332Z,59.71
2017-08-08T07:05:17.385Z,59.80
2017-08-08T07:06:23.483Z,59.79
2017-08-08T07:07:29.545Z,58.98
2017-08-08T07:08:35.438Z,59.27
2017-08-08T07:09:41.533Z,58.67
2017-08-08T07:10:47.600Z,59.00
2017-08-08T07:11:53.682Z,58.45
2017-08-08T07:12:59.736Z,58.28
2017-08-08T07:14:05.785Z,57.88
2017-08-08T07:15:11.860Z,57.63
2017-08-08T07:16:17.899Z,57.79
2017-08-08T07:17:24.005Z,57.15
2017-08-08T07:18:30.084Z,57.25
2017-08-08T07:19:36.136Z,57.12
2017-08-08T07:20:42.251Z,57.39
2017-08-08T07:21:48.350Z,57.24
2017-08-08T07:22:54.267Z,56.67
2017-08-08T07:24:00.373Z,56.25
2017-08-08T07:25:06.446Z,56.42
2017-08-08T07:26:12.509Z,56.66
2017-08-08T07:27:18.581Z,57.06
2017-08-08T07:28:24.719Z,56.57
2017-08-08T07:29:30.413Z,56.32
2017-08-08T07:30:36.502Z,56.13
2017-08-08T07:31:42.581Z,55.97
2017-08-08T07:32:48.679Z,55.28
2017-08-08T07:33:54.766Z,54.84
2017-08-08T07:35:00.851Z,55.15
2017-08-08T07:36:06.935Z,55.17
2017-08-08T07:37:12.965Z,55.38
2017-08-08T07:38:19.033Z,55.35
2017-08-08T07:39:25.118Z,55.36
2017-08-08T07:40:31.242Z,54.83
2017-08-08T07:41:37.321Z,55.08
2017-08-08T07:42:43.393Z,54.62
2017-08-08T07:43:49.423Z,54.10
2017-08-08T07:44:55.523Z,54.05
2017-08-08T07:46:01.567Z,54.14
2017-08-08T07:47:07.752Z,53.66
2017-08-08T07:48:13.810Z,53.56
2017-08-08T07:49:19.901Z,53.63
2017-08-08T07:50:26.003Z,53.91
2017-08-08T07:51:32.060Z,53.85
2017-08-08T07:52:38.126Z,53.66
2017-08-08T07:53:44.190Z,53.78
2017-08-08T07:54:50.245Z,53.45
2017-08-08T07:55:56.343Z,53.61
2017-08-08T07:57:02.421Z,53.14
2017-08-08T07:58:08.471Z,53.30
2017-08-08T07:59:14.539Z,53.63
2017-08-08T08:00:20.567Z,53.72
2017-08-08T08:01:26.679Z,53.78
2017-08-08T08:02:32.716Z,53.51
2017-08-08T08:03:38.770Z,52.92
2017-08-08T08:04:44.813Z,52.48
2017-08-08T08:05:50.886Z,53.06
2017-08-08T08:06:57.004Z,52.87
2017-08-08T08:08:03.036Z,52.86
2017-08-08T08:09:09.060Z,52.72
2017-08-08T08:10:15.134Z,52.57
2017-08-08T08:11:21.228Z,52.66
2017-08-08T08:12:27.321Z,52.75
2017-08-08T08:13:33.384Z,52.38
2017-08-08T08:14:39.461Z,52.39
2017-08-08T08:15:45.546Z,52.57
2017-08-08T08:16:51.623Z,52.69
2017-08-08T08:17:57.698Z,52.43
2017-08-08T08:19:03.864Z,52.44
2017-08-08T08:20:09.938Z,52.52
2017-08-08T08:21:16.054Z,51.69
2017-08-08T08:22:22.086Z,52.10
2017-08-08T08:23:28.189Z,51.89
2017-08-08T08:24:34.254Z,51.85
2017-08-08T08:25:39.969Z,51.50
2017-08-08T08:26:46.019Z,51.69
2017-08-08T08:27:52.065Z,52.08
2017-08-08T08:28:58.244Z,51.70
2017-08-08T08:30:04.321Z,51.61
2017-08-08T08:31:10.371Z,51.39
2017-08-08T08:32:16.456Z,51.78
2017-08-08T08:33:22.559Z,51.58
2017-08-08T08:34:28.681Z,51.44
2017-08-08T08:35:34.741Z,51.34
2017-08-08T08:36:40.811Z,51.79
2017-08-08T08:37:46.873Z,51.08
2017-08-08T08:38:52.979Z,51.48
2017-08-08T08:39:59.184Z,51.40
2017-08-08T08:41:05.255Z,52.08
2017-08-08T08:42:11.349Z,52.43
2017-08-08T08:43:17.418Z,52.52
2017-08-08T08:44:23.468Z,52.76
2017-08-08T08:45:29.571Z,51.88
2017-08-08T08:46:35.652Z,51.81
2017-08-08T08:47:41.711Z,51.83
2017-08-08T08:48:47.760Z,51.88
2017-08-08T08:49:53.837Z,52.22
2017-08-08T08:51:00.081Z,52.18
2017-08-08T08:52:06.140Z,52.60
2017-08-08T08:53:12.192Z,52.23
2017-08-08T08:54:18.247Z,51.95
2017-08-08T08:55:24.309Z,52.08
2017-08-08T08:56:30.395Z,51.95
2017-08-08T08:57:36.459Z,51.92
2017-08-08T08:58:42.530Z,52.18
2017-08-08T08:59:48.638Z,51.97
2017-08-08T09:00:54.729Z,52.02
2017-08-08T09:02:00.830Z,51.90
2017-08-08T09:03:06.893Z,52.08
2017-08-08T09:04:13.004Z,51.37
2017-08-08T09:05:19.112Z,51.62
2017-08-08T09:06:25.199Z,51.15
2017-08-08T09:07:31.294Z,51.16
2017-08-08T09:08:37.342Z,51.00
2017-08-08T09:09:43.389Z,51.25
2017-08-08T09:10:49.438Z,51.00
2017-08-08T09:11:55.521Z,50.82
2017-08-08T09:13:01.634Z,51.02
2017-08-08T09:14:07.804Z,51.02
2017-08-08T09:15:13.887Z,50.46
2017-08-08T09:16:19.925Z,50.24
2017-08-08T09:17:26.008Z,50.28
2017-08-08T09:18:32.086Z,50.39
2017-08-08T09:19:38.163Z,50.26
2017-08-08T09:20:44.250Z,50.69
2017-08-08T09:21:50.317Z,50.58
2017-08-08T09:22:56.401Z,50.46
2017-08-08T09:24:02.511Z,50.57
2017-08-08T09:25:09.361Z,50.76
2017-08-08T09:26:15.412Z,50.12
2017-08-08T09:27:21.502Z,50.49
2017-08-08T09:28:27.614Z,49.45
2017-08-08T09:29:33.737Z,49.65
2017-08-08T09:30:39.821Z,50.27
2017-08-08T09:31:45.868Z,50.30
2017-08-08T09:32:51.933Z,49.79
2017-08-08T09:33:57.975Z,49.02
2017-08-08T09:35:04.093Z,49.28
2017-08-08T09:36:10.181Z,49.01
2017-08-08T09:37:16.261Z,48.73
2017-08-08T09:38:22.393Z,48.84
2017-08-08T09:39:28.507Z,48.79
2017-08-08T09:40:34.586Z,49.18
2017-08-08T09:41:40.623Z,49.12
2017-08-08T09:42:46.674Z,48.63
2017-08-08T09:43:52.733Z,47.90
2017-08-08T09:44:58.867Z,47.66
2017-08-08T09:46:04.953Z,48.44
2017-08-08T09:47:11.028Z,48.39
2017-08-08T09:48:17.098Z,48.96
2017-08-08T09:49:23.170Z,48.78
2017-08-08T09:50:29.285Z,48.71
2017-08-08T09:51:35.379Z,48.68
2017-08-08T09:52:41.476Z,48.85
2017-08-08T09:53:47.523Z,49.28
2017-08-08T09:54:53.614Z,48.59
2017-08-08T09:55:59.814Z,48.92
2017-08-08T09:57:05.922Z,49.09
2017-08-08T09:58:11.824Z,49.24
2017-08-08T09:59:17.878Z,49.26
2017-08-08T10:00:23.934Z,49.70
2017-08-08T10:01:29.838Z,48.85
2017-08-08T10:02:35.992Z,49.26
2017-08-08T10:03:42.070Z,48.91
2017-08-08T10:04:48.151Z,48.52
2017-08-08T10:05:54.200Z,48.25
2017-08-08T10:07:00.370Z,48.59
2017-08-08T10:08:06.484Z,48.57
2017-08-08T10:09:12.563Z,48.46
2017-08-08T10:10:18.673Z,49.36
2017-08-08T10:11:24.756Z,49.91
2017-08-08T10:12:30.809Z,50.12
2017-08-08T10:13:36.925Z,49.43
2017-08-08T10:14:43.015Z,49.42
2017-08-08T10:15:49.107Z,49.21
2017-08-08T10:16:55.220Z,49.10
2017-08-08T10:18:01.289Z,49.05
2017-08-08T10:19:07.474Z,49.00
2017-08-08T10:20:13.545Z,48.75
2017-08-08T10:21:19.635Z,48.51
2017-08-08T10:22:25.701Z,48.67
2017-08-08T10:23:31.786Z,48.59
2017-08-08T10:24:37.913Z,47.62
2017-08-08T10:25:44.054Z,47.88
2017-08-08T10:26:50.167Z,47.60
2017-08-08T10:27:56.293Z,48.39
2017-08-08T10:29:02.383Z,48.30
2017-08-08T10:30:08.512Z,47.95
2017-08-08T10:31:14.626Z,47.16
2017-08-08T10:32:20.717Z,47.01
2017-08-08T10:33:26.836Z,47.22
2017-08-08T10:34:32.983Z,47.39
2017-08-08T10:35:39.119Z,47.28
2017-08-08T10:36:45.192Z,47.52
2017-08-08T10:37:51.385Z,47.71
2017-08-08T10:38:57.568Z,47.29
2017-08-08T10:40:03.326Z,47.46
2017-08-08T10:41:09.531Z,47.68
2017-08-08T10:42:15.715Z,47.51
2017-08-08T10:43:21.917Z,47.35
2017-08-08T10:44:27.998Z,47.34
2017-08-08T10:45:34.135Z,46.91
2017-08-08T10:46:40.311Z,46.92
2017-08-08T10:47:46.462Z,47.13
2017-08-08T10:48:52.557Z,46.59
2017-08-08T10:49:58.692Z,46.81
2017-08-08T10:51:04.813Z,46.80
2017-08-08T10:52:10.965Z,46.17
2017-08-08T10:53:17.042Z,46.50
2017-08-08T10:54:23.206Z,46.55
2017-08-08T10:55:29.277Z,47.21
2017-08-08T10:56:35.353Z,47.40
2017-08-08T10:57:41.500Z,47.42
2017-08-08T10:58:47.563Z,46.67
2017-08-08T10:59:53.676Z,46.50
2017-08-08T11:00:59.830Z,46.49
2017-08-08T11:02:05.881Z,46.74
2017-08-08T11:03:12.017Z,45.78
2017-08-08T11:04:18.058Z,46.07
2017-08-08T11:05:24.138Z,46.29
2017-08-08T11:06:30.185Z,46.02
2017-08-08T11:07:36.267Z,45.82
2017-08-08T11:08:42.395Z,45.69
2017-08-08T11:09:48.496Z,45.64
2017-08-08T11:10:54.604Z,45.45
2017-08-08T11:12:00.678Z,46.39
2017-08-08T11:13:06.758Z,45.92
2017-08-08T11:14:12.907Z,45.81
2017-08-08T11:15:19.157Z,44.52
2017-08-08T11:16:25.261Z,43.87
2017-08-08T11:17:31.389Z,42.76
2017-08-08T11:18:37.479Z,42.57
2017-08-08T11:19:47.493Z,43.18
2017-08-08T11:20:53.573Z,44.41
2017-08-08T11:21:59.774Z,44.43
2017-08-08T11:23:05.972Z,44.54
2017-08-08T11:24:12.071Z,43.87
2017-08-08T11:27:00.509Z,43.92
2017-08-08T11:28:06.544Z,43.88
2017-08-08T11:29:12.583Z,43.23
2017-08-08T11:30:31.415Z,43.30
2017-08-08T11:31:37.500Z,41.77
2017-08-08T11:32:43.567Z,42.50
2017-08-08T11:33:49.731Z,41.64
2017-08-08T11:34:55.750Z,41.86
2017-08-08T11:36:01.949Z,42.00
2017-08-08T11:37:08.051Z,41.85
2017-08-08T11:38:14.111Z,41.74
2017-08-08T11:39:20.152Z,42.15
2017-08-08T11:40:26.209Z,41.87
2017-08-08T11:41:32.293Z,41.95
2017-08-08T11:42:38.347Z,42.63
2017-08-08T11:43:44.415Z,40.33
2017-08-08T11:44:50.465Z,40.70
2017-08-08T11:45:56.503Z,41.09
2017-08-08T11:47:02.577Z,41.19
2017-08-08T11:48:08.613Z,41.29
2017-08-08T11:49:14.641Z,41.53
2017-08-08T11:50:20.390Z,41.63
2017-08-08T11:51:26.425Z,40.64
2017-08-08T11:52:32.508Z,40.49
2017-08-08T11:53:38.544Z,40.29
2017-08-08T11:54:44.313Z,40.36
2017-08-08T11:55:50.371Z,40.42
2017-08-08T11:58:39.006Z,40.69
2017-08-08T11:59:44.781Z,39.77
2017-08-08T12:00:50.838Z,39.43
2017-08-08T12:01:56.560Z,39.45
2017-08-08T12:03:02.601Z,39.50
2017-08-08T12:04:08.381Z,40.03
2017-08-08T12:05:14.131Z,39.58
2017-08-08T12:06:19.901Z,40.06
2017-08-08T12:07:25.641Z,39.90
2017-08-08T12:08:31.689Z,39.61
2017-08-08T12:09:37.731Z,39.54
2017-08-08T12:10:43.481Z,39.21
2017-08-08T12:11:49.583Z,39.64
2017-08-08T12:12:55.338Z,39.97
2017-08-08T12:14:01.398Z,39.82
2017-08-08T12:15:11.395Z,39.43
2017-08-08T12:16:17.452Z,40.25
2017-08-08T12:17:23.206Z,40.25
2017-08-08T12:18:28.621Z,39.60
2017-08-08T12:19:34.399Z,39.59
2017-08-08T12:20:40.206Z,39.52
2017-08-08T12:21:45.970Z,39.31
2017-08-08T12:22:51.719Z,39.12
2017-08-08T12:23:57.469Z,39.17
2017-08-08T12:25:03.480Z,39.44
2017-08-08T12:26:09.329Z,39.70
2017-08-08T12:27:15.364Z,39.74
2017-08-08T12:28:21.412Z,39.48
2017-08-08T12:29:27.471Z,39.80
2017-08-08T12:30:33.249Z,39.49
2017-08-08T12:31:39.333Z,39.82
2017-08-08T12:32:45.729Z,40.50
2017-08-08T12:33:51.791Z,40.36
2017-08-08T12:34:57.566Z,40.49
2017-08-08T12:36:02.945Z,40.04
2017-08-08T12:37:08.806Z,39.97
2017-08-08T12:38:14.565Z,39.26
2017-08-08T12:39:20.315Z,39.91
2017-08-08T12:40:26.112Z,39.59
2017-08-08T12:41:31.849Z,39.49
2017-08-08T12:42:37.662Z,39.03
2017-08-08T12:43:44.504Z,39.14
2017-08-08T12:44:50.279Z,39.54
2017-08-08T12:45:56.020Z,39.56
2017-08-08T12:47:01.796Z,40.27
2017-08-08T12:48:07.645Z,39.94
2017-08-08T12:49:13.710Z,40.19
2017-08-08T12:50:19.790Z,39.96
2017-08-08T12:51:25.831Z,39.77
2017-08-08T12:52:31.883Z,40.10
2017-08-08T12:55:19.985Z,40.32
2017-08-08T12:56:26.046Z,39.96
2017-08-08T12:57:31.812Z,39.51
2017-08-08T12:58:37.568Z,40.32
2017-08-08T12:59:43.642Z,40.04
2017-08-08T13:00:49.401Z,39.75
2017-08-08T13:01:55.149Z,39.64
2017-08-08T13:03:01.283Z,39.85
2017-08-08T13:04:07.368Z,39.71
2017-08-08T13:05:13.156Z,40.17
2017-08-08T13:06:18.929Z,40.15
2017-08-08T13:07:24.693Z,39.90
2017-08-08T13:08:30.436Z,40.07
2017-08-08T13:09:35.880Z,39.69
2017-08-08T13:10:41.670Z,39.70
2017-08-08T13:11:47.425Z,40.05
2017-08-08T13:12:53.164Z,39.60
2017-08-08T13:13:58.924Z,39.02
2017-08-08T13:15:04.657Z,39.42
2017-08-08T13:16:10.475Z,39.25
2017-08-08T13:17:16.259Z,39.52
2017-08-08T13:18:22.026Z,39.65
2017-08-08T13:19:27.780Z,39.83
2017-08-08T13:20:33.581Z,39.72
2017-08-08T13:21:39.372Z,39.71
2017-08-08T13:22:45.131Z,39.53
2017-08-08T13:23:50.882Z,39.02
2017-08-08T13:24:56.627Z,39.05
2017-08-08T13:26:02.665Z,39.35
2017-08-08T13:27:08.459Z,39.23
2017-08-08T13:28:14.224Z,39.77
2017-08-08T13:29:19.960Z,39.32
2017-08-08T13:30:25.729Z,39.23
2017-08-08T13:31:31.486Z,39.80
2017-08-08T13:32:37.260Z,40.11
2017-08-08T13:33:43.047Z,40.13
2017-08-08T13:34:48.806Z,40.32
2017-08-08T13:35:54.571Z,40.45
2017-08-08T13:37:00.409Z,40.92
2017-08-08T13:38:06.209Z,41.02
2017-08-08T13:39:11.951Z,40.80
2017-08-08T13:40:17.716Z,40.77
2017-08-08T13:41:23.484Z,40.31
2017-08-08T13:42:29.209Z,40.24
2017-08-08T13:43:34.994Z,40.10
2017-08-08T13:44:40.733Z,40.19
2017-08-08T13:47:37.062Z,40.13
2017-08-08T13:48:46.516Z,40.21
2017-08-08T13:49:52.592Z,40.42
2017-08-08T13:51:03.611Z,40.02
2017-08-08T13:52:09.507Z,40.33
2017-08-08T13:53:15.228Z,40.51
2017-08-08T13:54:20.993Z,40.64
2017-08-08T13:55:26.704Z,40.78
2017-08-08T13:56:32.716Z,40.58
2017-08-08T13:57:38.440Z,40.99
2017-08-08T13:58:44.188Z,41.03
2017-08-08T13:59:49.960Z,41.31
2017-08-08T14:00:55.693Z,40.58
2017-08-08T14:02:01.413Z,40.68
2017-08-08T14:03:07.685Z,40.75
2017-08-08T14:04:13.415Z,40.73
2017-08-08T14:05:19.207Z,40.57
2017-08-08T14:06:24.941Z,41.18
2017-08-08T14:07:30.690Z,40.56
2017-08-08T14:08:36.439Z,41.14
2017-08-08T14:09:41.965Z,40.93
2017-08-08T14:10:47.743Z,40.79
2017-08-08T14:11:53.489Z,40.53
2017-08-08T14:12:59.220Z,40.57
2017-08-08T14:14:05.122Z,40.28
2017-08-08T14:15:10.910Z,40.26
2017-08-08T14:16:16.674Z,39.19
2017-08-08T14:17:22.423Z,39.30
2017-08-08T14:18:28.171Z,39.63